sensor_id;sensor_type;location;lat;lon;timestamp;pressure;altitude;pressure_sealevel;temperature;humidity
70902;BME280;58548;47.210;8.618;2023-08-01T00:00:11;93403.53;;;27.88;31.82
70902;BME280;58548;47.210;8.618;2023-08-01T00:02:42;93510.72;;;28.63;32.01
70902;BME280;58548;47.210;8.618;2023-08-01T00:05:08;93500.31;;;28.62;32.49
70902;BME280;58548;47.210;8.618;2023-08-01T00:07:39;93479.16;;;28.42;32.94
70902;BME280;58548;47.210;8.618;2023-08-01T00:10:09;93498.41;;;28.53;32.41
70902;BME280;58548;47.210;8.618;2023-08-01T00:12:35;93409.34;;;27.98;33.19
70902;BME280;58548;47.210;8.618;2023-08-01T00:15:03;93394.84;;;27.91;32.80
70902;BME280;58548;47.210;8.618;2023-08-01T00:17:31;93490.53;;;28.57;33.02
70902;BME280;58548;47.210;8.618;2023-08-01T00:19:57;93486.28;;;28.56;32.84
70902;BME280;58548;47.210;8.618;2023-08-01T00:22:25;93477.09;;;28.57;33.38
70902;BME280;58548;47.210;8.618;2023-08-01T00:24:51;93473.75;;;28.60;32.90
70902;BME280;58548;47.210;8.618;2023-08-01T00:27:19;93429.25;;;28.33;32.78
70902;BME280;58548;47.210;8.618;2023-08-01T00:29:48;93358.22;;;27.86;33.12
70902;BME280;58548;47.210;8.618;2023-08-01T00:32:15;93387.56;;;28.00;33.20
70902;BME280;58548;47.210;8.618;2023-08-01T00:34:41;93448.81;;;28.51;32.48
70902;BME280;58548;47.210;8.618;2023-08-01T00:37:12;93435.09;;;28.43;32.63
70902;BME280;58548;47.210;8.618;2023-08-01T00:39:40;93389.81;;;28.16;32.60
70902;BME280;58548;47.210;8.618;2023-08-01T00:42:06;93333.91;;;27.82;32.15
70902;BME280;58548;47.210;8.618;2023-08-01T00:44:38;93353.63;;;27.95;33.48
70902;BME280;58548;47.210;8.618;2023-08-01T00:47:06;93350.34;;;27.90;32.70
70902;BME280;58548;47.210;8.618;2023-08-01T00:49:33;93340.38;;;27.81;33.81
70902;BME280;58548;47.210;8.618;2023-08-01T00:51:59;93437.13;;;28.47;33.06
70902;BME280;58548;47.210;8.618;2023-08-01T00:54:25;93426.41;;;28.47;33.14
70902;BME280;58548;47.210;8.618;2023-08-01T00:56:53;93292.91;;;27.56;32.39
70902;BME280;58548;47.210;8.618;2023-08-01T00:59:20;93329.50;;;27.87;33.59
70902;BME280;58548;47.210;8.618;2023-08-01T01:01:50;93418.03;;;28.48;33.32
70902;BME280;58548;47.210;8.618;2023-08-01T01:04:18;93397.97;;;28.46;33.39
70902;BME280;58548;47.210;8.618;2023-08-01T01:06:48;93358.53;;;28.20;32.88
70902;BME280;58548;47.210;8.618;2023-08-01T01:09:20;93383.78;;;28.36;33.18
70902;BME280;58548;47.210;8.618;2023-08-01T01:11:48;93400.97;;;28.53;33.62
70902;BME280;58548;47.210;8.618;2023-08-01T01:14:19;93366.09;;;28.35;32.90
70902;BME280;58548;47.210;8.618;2023-08-01T01:16:45;93379.00;;;28.51;32.49
70902;BME280;58548;47.210;8.618;2023-08-01T01:19:13;93399.84;;;28.54;32.82
70902;BME280;58548;47.210;8.618;2023-08-01T01:21:43;93287.22;;;27.83;32.76
70902;BME280;58548;47.210;8.618;2023-08-01T01:24:14;93381.69;;;28.51;33.37
70902;BME280;58548;47.210;8.618;2023-08-01T01:26:41;93375.69;;;28.54;33.09
70902;BME280;58548;47.210;8.618;2023-08-01T01:29:11;93276.97;;;27.77;33.27
70902;BME280;58548;47.210;8.618;2023-08-01T01:31:38;93336.56;;;28.18;33.49
70902;BME280;58548;47.210;8.618;2023-08-01T01:34:04;93367.50;;;28.33;32.89
70902;BME280;58548;47.210;8.618;2023-08-01T01:36:30;93277.59;;;27.74;33.48
70902;BME280;58548;47.210;8.618;2023-08-01T01:38:56;93361.63;;;28.39;32.49
70902;BME280;58548;47.210;8.618;2023-08-01T01:41:22;93260.72;;;27.73;32.07
70902;BME280;58548;47.210;8.618;2023-08-01T01:43:48;93364.16;;;28.44;31.98
70902;BME280;58548;47.210;8.618;2023-08-01T01:46:17;93253.13;;;27.84;31.87
70902;BME280;58548;47.210;8.618;2023-08-01T01:48:45;93252.34;;;27.83;31.82
70902;BME280;58548;47.210;8.618;2023-08-01T01:51:16;93354.38;;;28.49;30.94
70902;BME280;58548;47.210;8.618;2023-08-01T01:53:42;93360.66;;;28.53;30.58
70902;BME280;58548;47.210;8.618;2023-08-01T01:56:10;93253.41;;;27.91;30.03
70902;BME280;58548;47.210;8.618;2023-08-01T01:58:36;93356.22;;;28.66;29.75
70902;BME280;58548;47.210;8.618;2023-08-01T02:01:02;93355.41;;;28.65;29.67
70902;BME280;58548;47.210;8.618;2023-08-01T02:03:30;93268.88;;;28.12;29.34
70902;BME280;58548;47.210;8.618;2023-08-01T02:05:56;93353.34;;;28.80;29.44
70902;BME280;58548;47.210;8.618;2023-08-01T02:08:22;93356.47;;;28.82;28.94
70902;BME280;58548;47.210;8.618;2023-08-01T02:10:50;93347.78;;;28.85;28.89
70902;BME280;58548;47.210;8.618;2023-08-01T02:13:18;93348.06;;;28.92;28.75
70902;BME280;58548;47.210;8.618;2023-08-01T02:15:44;93249.84;;;28.35;28.56
70902;BME280;58548;47.210;8.618;2023-08-01T02:18:10;93264.97;;;28.48;28.36
70902;BME280;58548;47.210;8.618;2023-08-01T02:20:36;93351.78;;;29.09;28.49
70902;BME280;58548;47.210;8.618;2023-08-01T02:23:06;93249.97;;;28.47;28.51
70902;BME280;58548;47.210;8.618;2023-08-01T02:25:41;93356.31;;;29.17;28.07
70902;BME280;58548;47.210;8.618;2023-08-01T02:28:07;93326.34;;;29.06;27.66
70902;BME280;58548;47.210;8.618;2023-08-01T02:30:37;93328.97;;;29.15;28.33
70902;BME280;58548;47.210;8.618;2023-08-01T02:33:03;93356.09;;;29.31;28.19
70902;BME280;58548;47.210;8.618;2023-08-01T02:35:30;93324.19;;;29.21;27.97
70902;BME280;58548;47.210;8.618;2023-08-01T02:37:56;93329.03;;;29.27;27.85
70902;BME280;58548;47.210;8.618;2023-08-01T02:40:24;93227.41;;;28.69;28.08
70902;BME280;58548;47.210;8.618;2023-08-01T02:42:55;93333.56;;;29.44;28.16
70902;BME280;58548;47.210;8.618;2023-08-01T02:45:23;93228.97;;;28.79;28.07
70902;BME280;58548;47.210;8.618;2023-08-01T02:47:51;93319.34;;;29.44;27.68
70902;BME280;58548;47.210;8.618;2023-08-01T02:50:20;93216.13;;;28.85;27.66
70902;BME280;58548;47.210;8.618;2023-08-01T02:52:46;93313.97;;;29.44;28.17
70902;BME280;58548;47.210;8.618;2023-08-01T02:55:14;93228.78;;;28.84;27.73
70902;BME280;58548;47.210;8.618;2023-08-01T02:57:43;93325.16;;;29.46;27.97
70902;BME280;58548;47.210;8.618;2023-08-01T03:00:11;93242.50;;;28.92;28.19
70902;BME280;58548;47.210;8.618;2023-08-01T03:02:40;93326.59;;;29.43;28.09
70902;BME280;58548;47.210;8.618;2023-08-01T03:05:07;93346.28;;;29.56;27.81
70902;BME280;58548;47.210;8.618;2023-08-01T03:07:33;93231.97;;;28.78;28.10
70902;BME280;58548;47.210;8.618;2023-08-01T03:09:59;93249.28;;;28.89;28.51
70902;BME280;58548;47.210;8.618;2023-08-01T03:12:25;93307.53;;;29.27;28.68
70902;BME280;58548;47.210;8.618;2023-08-01T03:14:55;93363.53;;;29.55;29.12
70902;BME280;58548;47.210;8.618;2023-08-01T03:17:21;93356.94;;;29.53;29.97
70902;BME280;58548;47.210;8.618;2023-08-01T03:19:49;93224.78;;;28.61;30.89
70902;BME280;58548;47.210;8.618;2023-08-01T03:22:16;93359.00;;;29.47;30.17
70902;BME280;58548;47.210;8.618;2023-08-01T03:24:44;93261.19;;;28.79;30.62
70902;BME280;58548;47.210;8.618;2023-08-01T03:27:12;93261.06;;;28.76;30.88
70902;BME280;58548;47.210;8.618;2023-08-01T03:29:38;93265.47;;;28.71;30.63
70902;BME280;58548;47.210;8.618;2023-08-01T03:32:05;93258.88;;;28.60;30.61
70902;BME280;58548;47.210;8.618;2023-08-01T03:34:31;93341.88;;;29.00;30.83
70902;BME280;58548;47.210;8.618;2023-08-01T03:37:02;93273.66;;;28.45;30.36
70902;BME280;58548;47.210;8.618;2023-08-01T03:39:29;93328.69;;;28.78;30.59
70902;BME280;58548;47.210;8.618;2023-08-01T03:41:58;93375.06;;;28.96;30.34
70902;BME280;58548;47.210;8.618;2023-08-01T03:44:26;93192.69;;;27.87;30.81
70902;BME280;58548;47.210;8.618;2023-08-01T03:46:54;93365.59;;;28.98;30.32
70902;BME280;58548;47.210;8.618;2023-08-01T03:49:20;93360.84;;;28.95;30.86
70902;BME280;58548;47.210;8.618;2023-08-01T03:51:46;93187.34;;;27.78;31.37
70902;BME280;58548;47.210;8.618;2023-08-01T03:54:14;93277.97;;;28.37;30.85
70902;BME280;58548;47.210;8.618;2023-08-01T03:56:40;93365.31;;;28.91;30.76
70902;BME280;58548;47.210;8.618;2023-08-01T03:59:14;93317.97;;;28.60;30.64
70902;BME280;58548;47.210;8.618;2023-08-01T04:01:41;93228.78;;;27.98;30.87
70902;BME280;58548;47.210;8.618;2023-08-01T04:04:12;93367.50;;;28.89;30.39
70902;BME280;58548;47.210;8.618;2023-08-01T04:06:38;93267.94;;;28.17;30.39
70902;BME280;58548;47.210;8.618;2023-08-01T04:09:07;93371.03;;;28.81;31.38
70902;BME280;58548;47.210;8.618;2023-08-01T04:11:35;93339.75;;;28.67;30.34
70902;BME280;58548;47.210;8.618;2023-08-01T04:14:01;93263.19;;;28.13;31.13
70902;BME280;58548;47.210;8.618;2023-08-01T04:16:29;93365.97;;;28.79;30.81
70902;BME280;58548;47.210;8.618;2023-08-01T04:18:57;93358.38;;;28.81;30.56
70902;BME280;58548;47.210;8.618;2023-08-01T04:21:28;93363.16;;;28.76;31.52
70902;BME280;58548;47.210;8.618;2023-08-01T04:23:56;93330.28;;;28.61;31.58
70902;BME280;58548;47.210;8.618;2023-08-01T04:26:22;93263.00;;;28.10;31.14
70902;BME280;58548;47.210;8.618;2023-08-01T04:28:50;93364.25;;;28.74;31.27
70902;BME280;58548;47.210;8.618;2023-08-01T04:31:16;93364.25;;;28.74;31.75
70902;BME280;58548;47.210;8.618;2023-08-01T04:33:45;93365.03;;;28.66;30.84
70902;BME280;58548;47.210;8.618;2023-08-01T04:36:11;93260.34;;;28.01;30.81
70902;BME280;58548;47.210;8.618;2023-08-01T04:38:37;93358.09;;;28.65;31.30
70902;BME280;58548;47.210;8.618;2023-08-01T04:41:07;93363.63;;;28.69;30.69
70902;BME280;58548;47.210;8.618;2023-08-01T04:43:35;93363.94;;;28.67;30.83
70902;BME280;58548;47.210;8.618;2023-08-01T04:46:01;93364.41;;;28.69;30.43
70902;BME280;58548;47.210;8.618;2023-08-01T04:48:27;93359.66;;;28.66;30.55
70902;BME280;58548;47.210;8.618;2023-08-01T04:50:53;93329.13;;;28.41;30.38
70902;BME280;58548;47.210;8.618;2023-08-01T04:53:21;93342.34;;;28.55;31.13
70902;BME280;58548;47.210;8.618;2023-08-01T04:55:50;93372.78;;;28.77;30.74
70902;BME280;58548;47.210;8.618;2023-08-01T04:58:18;93293.78;;;28.30;30.45
70902;BME280;58548;47.210;8.618;2023-08-01T05:00:46;93344.19;;;28.63;30.90
70902;BME280;58548;47.210;8.618;2023-08-01T05:03:12;93246.28;;;28.04;30.95
70902;BME280;58548;47.210;8.618;2023-08-01T05:05:41;93313.91;;;28.54;31.55
70902;BME280;58548;47.210;8.618;2023-08-01T05:08:06;93306.03;;;28.49;32.11
70902;BME280;58548;47.210;8.618;2023-08-01T05:10:35;93216.19;;;27.90;31.34
70902;BME280;58548;47.210;8.618;2023-08-01T05:13:03;93325.84;;;28.65;31.26
70902;BME280;58548;47.210;8.618;2023-08-01T05:15:31;93230.31;;;28.08;31.55
70902;BME280;58548;47.210;8.618;2023-08-01T05:17:57;93244.06;;;28.15;31.41
70902;BME280;58548;47.210;8.618;2023-08-01T05:20:23;93217.75;;;27.91;32.52
70902;BME280;58548;47.210;8.618;2023-08-01T05:22:57;93301.28;;;28.46;32.75
70902;BME280;58548;47.210;8.618;2023-08-01T05:25:26;93315.50;;;28.55;32.45
70902;BME280;58548;47.210;8.618;2023-08-01T05:27:52;93339.13;;;28.70;32.69
70902;BME280;58548;47.210;8.618;2023-08-01T05:30:18;93343.56;;;28.66;32.80
70902;BME280;58548;47.210;8.618;2023-08-01T05:32:44;93345.97;;;28.59;33.27
70902;BME280;58548;47.210;8.618;2023-08-01T05:35:11;93257.19;;;27.99;33.66
70902;BME280;58548;47.210;8.618;2023-08-01T05:37:37;93261.63;;;27.95;33.26
70902;BME280;58548;47.210;8.618;2023-08-01T05:40:05;93253.28;;;27.88;34.25
70902;BME280;58548;47.210;8.618;2023-08-01T05:42:31;93333.25;;;28.38;33.68
70902;BME280;58548;47.210;8.618;2023-08-01T05:44:57;93307.22;;;28.21;34.25
70902;BME280;58548;47.210;8.618;2023-08-01T05:47:23;93356.88;;;28.54;34.35
70902;BME280;58548;47.210;8.618;2023-08-01T05:49:49;93346.13;;;28.54;34.16
70902;BME280;58548;47.210;8.618;2023-08-01T05:52:15;93350.41;;;28.55;34.22
70902;BME280;58548;47.210;8.618;2023-08-01T05:54:43;93313.81;;;28.33;33.93
70902;BME280;58548;47.210;8.618;2023-08-01T05:57:11;93246.34;;;27.87;33.62
70902;BME280;58548;47.210;8.618;2023-08-01T05:59:38;93277.38;;;28.05;33.88
70902;BME280;58548;47.210;8.618;2023-08-01T06:02:04;93266.50;;;28.02;33.59
70902;BME280;58548;47.210;8.618;2023-08-01T06:04:30;93256.72;;;27.97;34.05
70902;BME280;58548;47.210;8.618;2023-08-01T06:06:58;93243.97;;;27.94;33.62
70902;BME280;58548;47.210;8.618;2023-08-01T06:09:27;93229.91;;;27.88;33.68
70902;BME280;58548;47.210;8.618;2023-08-01T06:11:53;93315.56;;;28.37;34.09
70902;BME280;58548;47.210;8.618;2023-08-01T06:14:21;93267.91;;;27.99;34.19
70902;BME280;58548;47.210;8.618;2023-08-01T06:16:47;93345.84;;;28.47;34.44
70902;BME280;58548;47.210;8.618;2023-08-01T06:19:13;93305.94;;;28.19;33.50
70902;BME280;58548;47.210;8.618;2023-08-01T06:21:39;93365.22;;;28.61;33.13
70902;BME280;58548;47.210;8.618;2023-08-01T06:24:05;93358.25;;;28.60;32.46
70902;BME280;58548;47.210;8.618;2023-08-01T06:26:31;93265.69;;;28.01;33.00
70902;BME280;58548;47.210;8.618;2023-08-01T06:29:02;93324.03;;;28.39;32.20
70902;BME280;58548;47.210;8.618;2023-08-01T06:31:31;93346.63;;;28.47;32.11
70902;BME280;58548;47.210;8.618;2023-08-01T06:33:57;93318.53;;;28.36;32.58
70902;BME280;58548;47.210;8.618;2023-08-01T06:36:23;93350.19;;;28.60;31.99
70902;BME280;58548;47.210;8.618;2023-08-01T06:38:51;93341.22;;;28.56;32.18
70902;BME280;58548;47.210;8.618;2023-08-01T06:41:17;93336.50;;;28.53;31.80
70902;BME280;58548;47.210;8.618;2023-08-01T06:43:43;93324.47;;;28.50;31.38
70902;BME280;58548;47.210;8.618;2023-08-01T06:46:08;93319.59;;;28.52;31.13
70902;BME280;58548;47.210;8.618;2023-08-01T06:48:37;93240.75;;;28.09;30.75
70902;BME280;58548;47.210;8.618;2023-08-01T06:51:03;93341.03;;;28.79;31.21
70902;BME280;58548;47.210;8.618;2023-08-01T06:53:31;93258.56;;;28.23;31.38
70902;BME280;58548;47.210;8.618;2023-08-01T06:55:56;93256.50;;;28.28;31.60
70902;BME280;58548;47.210;8.618;2023-08-01T06:58:25;93264.97;;;28.39;31.55
70902;BME280;58548;47.210;8.618;2023-08-01T07:00:57;93235.81;;;28.29;32.03
70902;BME280;58548;47.210;8.618;2023-08-01T07:03:23;93342.34;;;28.94;33.75
70902;BME280;58548;47.210;8.618;2023-08-01T07:05:49;93242.59;;;28.35;33.07
70902;BME280;58548;47.210;8.618;2023-08-01T07:08:17;93250.91;;;28.42;33.16
70902;BME280;58548;47.210;8.618;2023-08-01T07:10:47;93272.06;;;28.53;34.01
70902;BME280;58548;47.210;8.618;2023-08-01T07:13:15;93357.63;;;29.11;34.18
70902;BME280;58548;47.210;8.618;2023-08-01T07:15:42;93264.00;;;28.53;34.75
70902;BME280;58548;47.210;8.618;2023-08-01T07:18:10;93271.88;;;28.58;35.30
70902;BME280;58548;47.210;8.618;2023-08-01T07:20:36;93320.09;;;28.93;34.77
70902;BME280;58548;47.210;8.618;2023-08-01T07:23:06;93355.69;;;29.20;33.66
70902;BME280;58548;47.210;8.618;2023-08-01T07:25:32;93337.41;;;29.04;34.11
70902;BME280;58548;47.210;8.618;2023-08-01T07:28:02;93327.75;;;29.03;33.63
70902;BME280;58548;47.210;8.618;2023-08-01T07:30:30;93338.34;;;29.09;33.08
70902;BME280;58548;47.210;8.618;2023-08-01T07:32:58;93240.34;;;28.46;32.76
70902;BME280;58548;47.210;8.618;2023-08-01T07:35:26;93237.69;;;28.37;32.68
70902;BME280;58548;47.210;8.618;2023-08-01T07:37:52;93315.09;;;28.74;33.28
70902;BME280;58548;47.210;8.618;2023-08-01T07:40:18;93352.03;;;28.86;33.26
70902;BME280;58548;47.210;8.618;2023-08-01T07:42:44;93329.38;;;28.57;33.41
70902;BME280;58548;47.210;8.618;2023-08-01T07:45:11;93362.34;;;28.66;33.63
70902;BME280;58548;47.210;8.618;2023-08-01T07:47:42;93169.88;;;27.36;33.40
70902;BME280;58548;47.210;8.618;2023-08-01T07:50:10;93358.19;;;28.30;34.10
70902;BME280;58548;47.210;8.618;2023-08-01T07:52:38;93251.25;;;27.32;33.70
70902;BME280;58548;47.210;8.618;2023-08-01T07:55:09;93272.38;;;27.33;34.35
70902;BME280;58548;47.210;8.618;2023-08-01T07:57:38;93306.75;;;27.40;34.28
70902;BME280;58548;47.210;8.618;2023-08-01T08:00:05;93310.19;;;27.14;35.23
70902;BME280;58548;47.210;8.618;2023-08-01T08:02:31;93317.13;;;27.15;35.67
70902;BME280;58548;47.210;8.618;2023-08-01T08:04:57;93270.06;;;26.74;36.26
70902;BME280;58548;47.210;8.618;2023-08-01T08:07:27;93255.41;;;26.71;36.54
70902;BME280;58548;47.210;8.618;2023-08-01T08:09:53;93198.09;;;26.23;36.21
70902;BME280;58548;47.210;8.618;2023-08-01T08:12:22;93287.22;;;26.73;36.61
70902;BME280;58548;47.210;8.618;2023-08-01T08:14:50;93296.28;;;26.94;36.66
70902;BME280;58548;47.210;8.618;2023-08-01T08:17:16;93269.81;;;26.84;36.89
70902;BME280;58548;47.210;8.618;2023-08-01T08:19:44;93292.19;;;26.88;36.48
70902;BME280;58548;47.210;8.618;2023-08-01T08:22:11;93306.09;;;27.08;37.02
70902;BME280;58548;47.210;8.618;2023-08-01T08:24:37;93303.91;;;27.10;36.14
70902;BME280;58548;47.210;8.618;2023-08-01T08:27:05;93305.47;;;27.11;36.76
70902;BME280;58548;47.210;8.618;2023-08-01T08:29:34;93207.63;;;26.47;36.48
70902;BME280;58548;47.210;8.618;2023-08-01T08:32:00;93322.81;;;27.22;36.32
70902;BME280;58548;47.210;8.618;2023-08-01T08:34:28;93272.00;;;26.82;36.30
70902;BME280;58548;47.210;8.618;2023-08-01T08:36:57;93267.84;;;26.76;36.39
70902;BME280;58548;47.210;8.618;2023-08-01T08:39:23;93244.81;;;26.57;36.15
70902;BME280;58548;47.210;8.618;2023-08-01T08:41:51;93347.44;;;27.24;36.51
70902;BME280;58548;47.210;8.618;2023-08-01T08:44:22;93337.16;;;27.18;35.99
70902;BME280;58548;47.210;8.618;2023-08-01T08:46:54;93314.47;;;27.24;35.66
70902;BME280;58548;47.210;8.618;2023-08-01T08:49:21;93223.53;;;26.52;36.72
70902;BME280;58548;47.210;8.618;2023-08-01T08:51:48;93253.66;;;26.67;36.08
70902;BME280;58548;47.210;8.618;2023-08-01T08:54:18;93350.59;;;27.27;36.65
70902;BME280;58548;47.210;8.618;2023-08-01T08:56:45;93367.31;;;27.32;36.42
70902;BME280;58548;47.210;8.618;2023-08-01T08:59:14;93359.88;;;27.29;37.07
70902;BME280;58548;47.210;8.618;2023-08-01T09:01:40;93352.94;;;27.19;37.65
70902;BME280;58548;47.210;8.618;2023-08-01T09:04:07;93290.97;;;26.63;37.71
70902;BME280;58548;47.210;8.618;2023-08-01T09:06:49;93328.91;;;26.97;37.57
70902;BME280;58548;47.210;8.618;2023-08-01T09:09:17;93241.59;;;26.38;37.62
70902;BME280;58548;47.210;8.618;2023-08-01T09:11:49;93347.03;;;27.00;37.59
70902;BME280;58548;47.210;8.618;2023-08-01T09:14:18;93266.84;;;26.54;37.11
70902;BME280;58548;47.210;8.618;2023-08-01T09:16:46;93310.94;;;26.88;37.15
70902;BME280;58548;47.210;8.618;2023-08-01T09:19:23;93265.25;;;26.53;37.84
70902;BME280;58548;47.210;8.618;2023-08-01T09:21:53;93352.91;;;27.11;37.92
70902;BME280;58548;47.210;8.618;2023-08-01T09:24:20;93339.50;;;27.11;37.61
70902;BME280;58548;47.210;8.618;2023-08-01T09:26:51;93338.25;;;27.08;37.54
70902;BME280;58548;47.210;8.618;2023-08-01T09:29:20;93318.63;;;26.81;38.52
70902;BME280;58548;47.210;8.618;2023-08-01T09:31:48;93274.34;;;26.34;38.01
70902;BME280;58548;47.210;8.618;2023-08-01T09:34:25;93313.03;;;26.28;37.54
70902;BME280;58548;47.210;8.618;2023-08-01T09:36:58;93416.63;;;26.82;38.29
70902;BME280;58548;47.210;8.618;2023-08-01T09:39:24;93415.75;;;26.73;38.36
70902;BME280;58548;47.210;8.618;2023-08-01T09:44:26;93305.09;;;25.92;38.30
70902;BME280;58548;47.210;8.618;2023-08-01T09:47:04;93343.09;;;26.25;38.27
70902;BME280;58548;47.210;8.618;2023-08-01T09:49:31;93286.06;;;25.93;38.97
70902;BME280;58548;47.210;8.618;2023-08-01T09:51:58;93283.38;;;25.93;38.68
70902;BME280;58548;47.210;8.618;2023-08-01T09:54:27;93269.31;;;25.79;38.45
70902;BME280;58548;47.210;8.618;2023-08-01T09:56:55;93358.16;;;26.44;38.81
70902;BME280;58548;47.210;8.618;2023-08-01T09:59:24;93353.78;;;26.48;38.75
70902;BME280;58548;47.210;8.618;2023-08-01T10:01:55;93194.22;;;25.43;38.45
70902;BME280;58548;47.210;8.618;2023-08-01T10:04:32;93332.81;;;26.50;38.71
70902;BME280;58548;47.210;8.618;2023-08-01T10:07:11;93359.41;;;26.78;37.75
70902;BME280;58548;47.210;8.618;2023-08-01T10:09:40;93365.63;;;26.87;38.68
70902;BME280;58548;47.210;8.618;2023-08-01T10:12:07;93289.16;;;26.41;38.82
70902;BME280;58548;47.210;8.618;2023-08-01T10:14:35;93343.09;;;26.88;38.61
70902;BME280;58548;47.210;8.618;2023-08-01T10:17:02;93246.00;;;26.33;37.99
70902;BME280;58548;47.210;8.618;2023-08-01T10:19:32;93276.16;;;26.57;37.62
70902;BME280;58548;47.210;8.618;2023-08-01T10:22:03;93362.19;;;27.13;37.30
70902;BME280;58548;47.210;8.618;2023-08-01T10:24:31;93360.16;;;27.10;38.68
70902;BME280;58548;47.210;8.618;2023-08-01T10:27:12;93265.25;;;26.53;38.33
70902;BME280;58548;47.210;8.618;2023-08-01T10:29:38;93357.81;;;27.17;38.11
70902;BME280;58548;47.210;8.618;2023-08-01T10:32:07;93284.53;;;26.73;37.60
70902;BME280;58548;47.210;8.618;2023-08-01T10:34:36;93272.19;;;26.54;37.59
70902;BME280;58548;47.210;8.618;2023-08-01T10:37:02;93354.00;;;27.01;37.74
70902;BME280;58548;47.210;8.618;2023-08-01T10:39:30;93347.34;;;26.89;38.48
70902;BME280;58548;47.210;8.618;2023-08-01T10:42:05;93358.69;;;26.86;37.96
70902;BME280;58548;47.210;8.618;2023-08-01T10:44:32;93354.59;;;26.98;38.41
70902;BME280;58548;47.210;8.618;2023-08-01T10:47:02;93371.47;;;26.98;38.88
70902;BME280;58548;47.210;8.618;2023-08-01T10:49:39;93329.03;;;26.83;38.85
70902;BME280;58548;47.210;8.618;2023-08-01T10:52:25;93385.56;;;27.21;38.98
70902;BME280;58548;47.210;8.618;2023-08-01T10:54:59;93282.03;;;26.68;38.39
70902;BME280;58548;47.210;8.618;2023-08-01T10:57:30;93373.03;;;27.48;38.04
70902;BME280;58548;47.210;8.618;2023-08-01T10:59:57;93269.50;;;26.94;38.63
70902;BME280;58548;47.210;8.618;2023-08-01T11:02:32;93269.50;;;27.12;38.78
70902;BME280;58548;47.210;8.618;2023-08-01T11:05:04;93369.41;;;27.97;38.74
70902;BME280;58548;47.210;8.618;2023-08-01T11:07:34;93358.69;;;28.23;37.63
70902;BME280;58548;47.210;8.618;2023-08-01T11:10:15;93267.97;;;27.81;37.43
70902;BME280;58548;47.210;8.618;2023-08-01T11:12:46;93363.19;;;28.58;37.45
70902;BME280;58548;47.210;8.618;2023-08-01T11:15:14;93342.47;;;28.58;36.70
70902;BME280;58548;47.210;8.618;2023-08-01T11:17:42;93363.63;;;28.78;37.33
70902;BME280;58548;47.210;8.618;2023-08-01T11:20:11;93266.91;;;28.30;36.21
70902;BME280;58548;47.210;8.618;2023-08-01T11:22:52;93334.13;;;28.99;36.17
70902;BME280;58548;47.210;8.618;2023-08-01T11:25:18;93360.41;;;29.23;35.94
70902;BME280;58548;47.210;8.618;2023-08-01T11:27:46;93346.97;;;29.23;35.10
70902;BME280;58548;47.210;8.618;2023-08-01T11:30:13;93373.31;;;29.39;35.70
70902;BME280;58548;47.210;8.618;2023-08-01T11:32:39;93267.78;;;28.91;34.97
70902;BME280;58548;47.210;8.618;2023-08-01T11:35:05;93287.84;;;29.14;34.86
70902;BME280;58548;47.210;8.618;2023-08-01T11:37:32;93371.03;;;29.71;35.16
70902;BME280;58548;47.210;8.618;2023-08-01T11:40:01;93357.25;;;29.72;35.07
70902;BME280;58548;47.210;8.618;2023-08-01T11:42:33;93277.72;;;29.20;34.97
70902;BME280;58548;47.210;8.618;2023-08-01T11:45:11;93277.78;;;29.11;35.01
70902;BME280;58548;47.210;8.618;2023-08-01T11:47:47;93375.94;;;29.69;34.79
70902;BME280;58548;47.210;8.618;2023-08-01T11:50:22;93278.00;;;28.97;34.73
70902;BME280;58548;47.210;8.618;2023-08-01T11:52:49;93375.88;;;29.56;34.91
70902;BME280;58548;47.210;8.618;2023-08-01T11:55:25;93300.75;;;29.00;35.44
70902;BME280;58548;47.210;8.618;2023-08-01T11:58:00;93285.97;;;28.85;35.14
70902;BME280;58548;47.210;8.618;2023-08-01T12:00:28;93349.50;;;29.19;35.39
70902;BME280;58548;47.210;8.618;2023-08-01T12:03:10;93286.03;;;28.76;36.07
70902;BME280;58548;47.210;8.618;2023-08-01T12:05:42;93383.09;;;29.34;34.99
70902;BME280;58548;47.210;8.618;2023-08-01T12:08:14;93394.19;;;29.33;34.78
70902;BME280;58548;47.210;8.618;2023-08-01T12:10:45;93357.66;;;29.02;35.10
70902;BME280;58548;47.210;8.618;2023-08-01T12:13:24;93280.31;;;28.39;36.36
70902;BME280;58548;47.210;8.618;2023-08-01T12:15:55;93345.25;;;28.71;35.88
70902;BME280;58548;47.210;8.618;2023-08-01T12:18:30;93379.53;;;28.83;36.19
70902;BME280;58548;47.210;8.618;2023-08-01T12:20:56;93370.09;;;28.77;35.99
70902;BME280;58548;47.210;8.618;2023-08-01T12:23:25;93402.78;;;28.87;36.03
70902;BME280;58548;47.210;8.618;2023-08-01T12:25:51;93302.81;;;28.17;36.48
70902;BME280;58548;47.210;8.618;2023-08-01T12:28:21;93407.38;;;28.69;36.13
70902;BME280;58548;47.210;8.618;2023-08-01T12:30:47;93405.34;;;28.66;36.91
70902;BME280;58548;47.210;8.618;2023-08-01T12:33:14;93353.31;;;28.23;37.31
70902;BME280;58548;47.210;8.618;2023-08-01T12:35:41;93385.16;;;28.51;37.05
70902;BME280;58548;47.210;8.618;2023-08-01T12:38:12;93287.53;;;27.91;37.26
70902;BME280;58548;47.210;8.618;2023-08-01T12:40:38;93289.84;;;28.01;37.23
70902;BME280;58548;47.210;8.618;2023-08-01T12:43:04;93363.63;;;28.60;37.15
70902;BME280;58548;47.210;8.618;2023-08-01T12:45:31;93359.84;;;28.61;37.27
70902;BME280;58548;47.210;8.618;2023-08-01T12:47:59;93272.19;;;28.00;37.40
70902;BME280;58548;47.210;8.618;2023-08-01T12:50:25;93319.47;;;28.40;37.50
70902;BME280;58548;47.210;8.618;2023-08-01T12:52:53;93349.00;;;28.49;37.72
70902;BME280;58548;47.210;8.618;2023-08-01T12:55:19;93339.53;;;28.42;38.27
70902;BME280;58548;47.210;8.618;2023-08-01T12:57:47;93344.41;;;28.49;38.32
70902;BME280;58548;47.210;8.618;2023-08-01T13:00:16;93324.66;;;28.54;38.06
70902;BME280;58548;47.210;8.618;2023-08-01T13:02:44;93264.72;;;28.32;38.00
70902;BME280;58548;47.210;8.618;2023-08-01T13:05:10;93253.19;;;28.23;37.32
70902;BME280;58548;47.210;8.618;2023-08-01T13:07:38;93181.53;;;27.67;36.45